sensor_id;sensor_type;location;lat;lon;timestamp;temperature;humidity
14370;DHT22;7268;50.792;0.252;2023-08-01T00:02:13;15.10;99.90
14370;DHT22;7268;50.792;0.252;2023-08-01T00:04:40;15.00;99.90
14370;DHT22;7268;50.792;0.252;2023-08-01T00:07:06;15.10;99.90
14370;DHT22;7268;50.792;0.252;2023-08-01T00:09:33;15.10;99.90
14370;DHT22;7268;50.792;0.252;2023-08-01T00:12:00;15.10;99.90
14370;DHT22;7268;50.792;0.252;2023-08-01T00:14:27;15.10;99.90
14370;DHT22;7268;50.792;0.252;2023-08-01T00:16:54;15.10;99.90
14370;DHT22;7268;50.792;0.252;2023-08-01T00:19:21;15.00;99.90
14370;DHT22;7268;50.792;0.252;2023-08-01T00:21:48;15.00;99.90
14370;DHT22;7268;50.792;0.252;2023-08-01T00:24:15;14.90;99.90
14370;DHT22;7268;50.792;0.252;2023-08-01T00:26:42;15.00;99.90
14370;DHT22;7268;50.792;0.252;2023-08-01T00:29:09;14.90;99.90
14370;DHT22;7268;50.792;0.252;2023-08-01T00:31:36;14.80;99.90
14370;DHT22;7268;50.792;0.252;2023-08-01T00:34:03;14.90;99.90
14370;DHT22;7268;50.792;0.252;2023-08-01T00:36:29;14.80;99.90
14370;DHT22;7268;50.792;0.252;2023-08-01T00:38:56;14.90;99.90
14370;DHT22;7268;50.792;0.252;2023-08-01T00:41:23;14.90;99.90
14370;DHT22;7268;50.792;0.252;2023-08-01T00:43:50;15.00;99.90
14370;DHT22;7268;50.792;0.252;2023-08-01T00:46:17;15.00;99.90
14370;DHT22;7268;50.792;0.252;2023-08-01T00:48:44;15.00;99.90
14370;DHT22;7268;50.792;0.252;2023-08-01T00:51:11;15.00;99.90
14370;DHT22;7268;50.792;0.252;2023-08-01T00:53:39;15.10;99.90
14370;DHT22;7268;50.792;0.252;2023-08-01T00:56:06;15.00;99.90
14370;DHT22;7268;50.792;0.252;2023-08-01T00:58:33;14.90;99.90
14370;DHT22;7268;50.792;0.252;2023-08-01T01:01:00;14.90;99.90
14370;DHT22;7268;50.792;0.252;2023-08-01T01:03:28;14.90;99.90
14370;DHT22;7268;50.792;0.252;2023-08-01T01:06:20;15.00;99.90
14370;DHT22;7268;50.792;0.252;2023-08-01T01:08:49;15.00;99.90
14370;DHT22;7268;50.792;0.252;2023-08-01T01:11:16;15.10;99.90
14370;DHT22;7268;50.792;0.252;2023-08-01T01:13:43;15.10;99.90
14370;DHT22;7268;50.792;0.252;2023-08-01T01:16:10;15.00;99.90
14370;DHT22;7268;50.792;0.252;2023-08-01T01:18:37;15.00;99.90
14370;DHT22;7268;50.792;0.252;2023-08-01T01:21:03;15.10;99.90
14370;DHT22;7268;50.792;0.252;2023-08-01T01:23:50;15.10;99.90
14370;DHT22;7268;50.792;0.252;2023-08-01T01:26:19;15.10;99.90
14370;DHT22;7268;50.792;0.252;2023-08-01T01:28:48;15.00;99.90
14370;DHT22;7268;50.792;0.252;2023-08-01T01:31:16;15.10;99.90
14370;DHT22;7268;50.792;0.252;2023-08-01T01:33:44;15.10;99.90
14370;DHT22;7268;50.792;0.252;2023-08-01T01:36:11;15.00;99.90
14370;DHT22;7268;50.792;0.252;2023-08-01T01:38:38;15.10;99.90
14370;DHT22;7268;50.792;0.252;2023-08-01T01:41:05;15.20;99.90
14370;DHT22;7268;50.792;0.252;2023-08-01T01:43:32;15.20;99.90
14370;DHT22;7268;50.792;0.252;2023-08-01T01:45:58;15.30;99.90
14370;DHT22;7268;50.792;0.252;2023-08-01T01:48:25;15.30;99.90
14370;DHT22;7268;50.792;0.252;2023-08-01T01:50:52;15.30;99.90
14370;DHT22;7268;50.792;0.252;2023-08-01T01:53:19;15.30;99.90
14370;DHT22;7268;50.792;0.252;2023-08-01T01:55:46;15.40;99.90
14370;DHT22;7268;50.792;0.252;2023-08-01T01:58:13;15.30;99.90
14370;DHT22;7268;50.792;0.252;2023-08-01T02:00:40;15.30;99.90
14370;DHT22;7268;50.792;0.252;2023-08-01T02:03:07;15.30;99.90
14370;DHT22;7268;50.792;0.252;2023-08-01T02:05:36;15.30;99.90
14370;DHT22;7268;50.792;0.252;2023-08-01T02:08:03;15.30;99.90
14370;DHT22;7268;50.792;0.252;2023-08-01T02:10:31;15.40;99.90
14370;DHT22;7268;50.792;0.252;2023-08-01T02:12:58;15.30;99.90
14370;DHT22;7268;50.792;0.252;2023-08-01T02:15:25;15.40;99.90
14370;DHT22;7268;50.792;0.252;2023-08-01T02:17:52;15.30;99.90
14370;DHT22;7268;50.792;0.252;2023-08-01T02:20:19;15.40;99.90
14370;DHT22;7268;50.792;0.252;2023-08-01T02:22:46;15.50;99.90
14370;DHT22;7268;50.792;0.252;2023-08-01T02:25:13;15.50;99.90
14370;DHT22;7268;50.792;0.252;2023-08-01T02:27:40;15.50;99.90
14370;DHT22;7268;50.792;0.252;2023-08-01T02:30:07;15.50;99.90
14370;DHT22;7268;50.792;0.252;2023-08-01T02:32:34;15.60;99.90
14370;DHT22;7268;50.792;0.252;2023-08-01T02:35:03;15.50;99.90
14370;DHT22;7268;50.792;0.252;2023-08-01T02:37:30;15.60;99.90
14370;DHT22;7268;50.792;0.252;2023-08-01T02:39:57;15.60;99.90
14370;DHT22;7268;50.792;0.252;2023-08-01T02:42:24;15.60;99.90
14370;DHT22;7268;50.792;0.252;2023-08-01T02:44:51;15.60;99.90
14370;DHT22;7268;50.792;0.252;2023-08-01T02:47:18;15.70;99.90
14370;DHT22;7268;50.792;0.252;2023-08-01T02:49:45;15.70;99.90
14370;DHT22;7268;50.792;0.252;2023-08-01T02:52:11;15.70;99.90
14370;DHT22;7268;50.792;0.252;2023-08-01T02:54:38;15.70;99.90
14370;DHT22;7268;50.792;0.252;2023-08-01T02:57:05;15.60;99.90
14370;DHT22;7268;50.792;0.252;2023-08-01T02:59:32;15.60;99.90
14370;DHT22;7268;50.792;0.252;2023-08-01T03:02:00;15.50;99.90
14370;DHT22;7268;50.792;0.252;2023-08-01T03:04:27;15.50;99.90
14370;DHT22;7268;50.792;0.252;2023-08-01T03:07:11;15.40;99.90
14370;DHT22;7268;50.792;0.252;2023-08-01T03:09:38;15.40;99.90
14370;DHT22;7268;50.792;0.252;2023-08-01T03:12:05;15.40;99.90
14370;DHT22;7268;50.792;0.252;2023-08-01T03:14:32;15.40;99.90
14370;DHT22;7268;50.792;0.252;2023-08-01T03:16:59;15.40;99.90
14370;DHT22;7268;50.792;0.252;2023-08-01T03:19:26;15.40;99.90
14370;DHT22;7268;50.792;0.252;2023-08-01T03:21:53;15.40;99.90
14370;DHT22;7268;50.792;0.252;2023-08-01T03:24:20;15.30;99.90
14370;DHT22;7268;50.792;0.252;2023-08-01T03:26:47;15.40;99.90
14370;DHT22;7268;50.792;0.252;2023-08-01T03:29:14;15.40;99.90
14370;DHT22;7268;50.792;0.252;2023-08-01T03:31:40;15.40;99.90
14370;DHT22;7268;50.792;0.252;2023-08-01T03:34:08;15.40;99.90
14370;DHT22;7268;50.792;0.252;2023-08-01T03:36:35;15.40;99.90
14370;DHT22;7268;50.792;0.252;2023-08-01T03:39:03;15.50;99.90
14370;DHT22;7268;50.792;0.252;2023-08-01T03:41:32;15.50;99.90
14370;DHT22;7268;50.792;0.252;2023-08-01T03:43:59;15.50;99.90
14370;DHT22;7268;50.792;0.252;2023-08-01T03:46:26;15.50;99.90
14370;DHT22;7268;50.792;0.252;2023-08-01T03:48:53;15.40;99.90
14370;DHT22;7268;50.792;0.252;2023-08-01T03:51:20;15.40;99.90
14370;DHT22;7268;50.792;0.252;2023-08-01T03:53:47;15.30;99.90
14370;DHT22;7268;50.792;0.252;2023-08-01T03:56:25;15.30;99.90
14370;DHT22;7268;50.792;0.252;2023-08-01T03:58:53;15.30;99.90
14370;DHT22;7268;50.792;0.252;2023-08-01T04:01:20;15.20;99.90
14370;DHT22;7268;50.792;0.252;2023-08-01T04:03:47;15.30;99.90
14370;DHT22;7268;50.792;0.252;2023-08-01T04:06:14;15.30;99.90
14370;DHT22;7268;50.792;0.252;2023-08-01T04:08:42;15.30;99.90
14370;DHT22;7268;50.792;0.252;2023-08-01T04:11:09;15.30;99.90
14370;DHT22;7268;50.792;0.252;2023-08-01T04:13:38;15.20;99.90
14370;DHT22;7268;50.792;0.252;2023-08-01T04:16:04;15.20;99.90
14370;DHT22;7268;50.792;0.252;2023-08-01T04:18:31;15.20;99.90
14370;DHT22;7268;50.792;0.252;2023-08-01T04:20:58;15.20;99.90
14370;DHT22;7268;50.792;0.252;2023-08-01T04:23:25;15.20;99.90
14370;DHT22;7268;50.792;0.252;2023-08-01T04:25:52;15.10;99.90
14370;DHT22;7268;50.792;0.252;2023-08-01T04:28:20;15.10;99.90
14370;DHT22;7268;50.792;0.252;2023-08-01T04:30:51;15.10;99.90
14370;DHT22;7268;50.792;0.252;2023-08-01T04:33:18;15.10;99.90
14370;DHT22;7268;50.792;0.252;2023-08-01T04:35:45;15.10;99.90
14370;DHT22;7268;50.792;0.252;2023-08-01T04:38:15;15.10;99.90
14370;DHT22;7268;50.792;0.252;2023-08-01T04:40:43;15.10;99.90
14370;DHT22;7268;50.792;0.252;2023-08-01T04:43:11;15.20;99.90
14370;DHT22;7268;50.792;0.252;2023-08-01T04:45:38;15.20;99.90
14370;DHT22;7268;50.792;0.252;2023-08-01T04:48:05;15.20;99.90
14370;DHT22;7268;50.792;0.252;2023-08-01T04:50:32;15.20;99.90
14370;DHT22;7268;50.792;0.252;2023-08-01T04:52:59;15.20;99.90
14370;DHT22;7268;50.792;0.252;2023-08-01T04:55:26;15.20;99.90
14370;DHT22;7268;50.792;0.252;2023-08-01T04:57:53;15.20;99.90
14370;DHT22;7268;50.792;0.252;2023-08-01T05:00:19;15.20;99.90
14370;DHT22;7268;50.792;0.252;2023-08-01T05:02:46;15.10;99.90
14370;DHT22;7268;50.792;0.252;2023-08-01T05:05:14;15.30;99.90
14370;DHT22;7268;50.792;0.252;2023-08-01T05:07:42;15.30;99.90
14370;DHT22;7268;50.792;0.252;2023-08-01T05:10:10;15.40;99.90
14370;DHT22;7268;50.792;0.252;2023-08-01T05:12:37;15.40;99.90
14370;DHT22;7268;50.792;0.252;2023-08-01T05:15:04;15.40;99.90
14370;DHT22;7268;50.792;0.252;2023-08-01T05:17:31;15.30;99.90
14370;DHT22;7268;50.792;0.252;2023-08-01T05:19:58;15.30;99.90
14370;DHT22;7268;50.792;0.252;2023-08-01T05:22:25;15.30;99.90
14370;DHT22;7268;50.792;0.252;2023-08-01T05:24:51;15.30;99.90
14370;DHT22;7268;50.792;0.252;2023-08-01T05:27:18;15.30;99.90
14370;DHT22;7268;50.792;0.252;2023-08-01T05:29:45;15.30;99.90
14370;DHT22;7268;50.792;0.252;2023-08-01T05:32:12;15.40;99.90
14370;DHT22;7268;50.792;0.252;2023-08-01T05:34:39;15.60;99.90
14370;DHT22;7268;50.792;0.252;2023-08-01T05:37:06;15.70;99.90
14370;DHT22;7268;50.792;0.252;2023-08-01T05:39:33;15.80;99.90
14370;DHT22;7268;50.792;0.252;2023-08-01T05:41:59;15.90;99.90
14370;DHT22;7268;50.792;0.252;2023-08-01T05:44:26;16.00;99.90
14370;DHT22;7268;50.792;0.252;2023-08-01T05:46:53;16.10;99.90
14370;DHT22;7268;50.792;0.252;2023-08-01T05:49:20;16.10;99.90
14370;DHT22;7268;50.792;0.252;2023-08-01T05:51:47;16.20;99.90
14370;DHT22;7268;50.792;0.252;2023-08-01T05:54:14;16.10;99.90
14370;DHT22;7268;50.792;0.252;2023-08-01T05:56:41;16.10;99.90
14370;DHT22;7268;50.792;0.252;2023-08-01T05:59:08;16.10;99.90
14370;DHT22;7268;50.792;0.252;2023-08-01T06:01:36;16.00;99.90
14370;DHT22;7268;50.792;0.252;2023-08-01T06:04:03;15.90;99.90
14370;DHT22;7268;50.792;0.252;2023-08-01T06:06:30;15.80;99.90
14370;DHT22;7268;50.792;0.252;2023-08-01T06:08:57;15.80;99.90
14370;DHT22;7268;50.792;0.252;2023-08-01T06:11:24;16.60;99.90
14370;DHT22;7268;50.792;0.252;2023-08-01T06:13:53;17.60;99.90
14370;DHT22;7268;50.792;0.252;2023-08-01T06:16:20;18.60;99.80
14370;DHT22;7268;50.792;0.252;2023-08-01T06:18:47;19.50;96.90
14370;DHT22;7268;50.792;0.252;2023-08-01T06:21:14;18.90;97.30
14370;DHT22;7268;50.792;0.252;2023-08-01T06:23:41;18.40;98.30
14370;DHT22;7268;50.792;0.252;2023-08-01T06:26:08;18.30;98.60
14370;DHT22;7268;50.792;0.252;2023-08-01T06:28:34;18.70;98.20
14370;DHT22;7268;50.792;0.252;2023-08-01T06:31:01;19.00;97.40
14370;DHT22;7268;50.792;0.252;2023-08-01T06:33:29;19.70;96.70
14370;DHT22;7268;50.792;0.252;2023-08-01T06:35:56;21.00;94.10
14370;DHT22;7268;50.792;0.252;2023-08-01T06:38:23;20.90;92.20
14370;DHT22;7268;50.792;0.252;2023-08-01T06:40:50;20.00;95.30
14370;DHT22;7268;50.792;0.252;2023-08-01T06:43:17;20.50;94.40
14370;DHT22;7268;50.792;0.252;2023-08-01T06:45:46;22.00;91.70
14370;DHT22;7268;50.792;0.252;2023-08-01T06:48:12;23.20;90.20
14370;DHT22;7268;50.792;0.252;2023-08-01T06:50:39;23.80;86.00
14370;DHT22;7268;50.792;0.252;2023-08-01T06:53:06;24.00;84.60
14370;DHT22;7268;50.792;0.252;2023-08-01T06:55:35;23.00;88.10
14370;DHT22;7268;50.792;0.252;2023-08-01T06:58:01;21.70;90.90
14370;DHT22;7268;50.792;0.252;2023-08-01T07:00:28;20.90;92.30
14370;DHT22;7268;50.792;0.252;2023-08-01T07:02:55;19.70;94.00
14370;DHT22;7268;50.792;0.252;2023-08-01T07:05:23;19.10;96.00
14370;DHT22;7268;50.792;0.252;2023-08-01T07:07:50;18.50;96.70
14370;DHT22;7268;50.792;0.252;2023-08-01T07:10:17;18.10;97.80
14370;DHT22;7268;50.792;0.252;2023-08-01T07:12:44;17.90;98.50
14370;DHT22;7268;50.792;0.252;2023-08-01T07:15:11;17.80;98.80
14370;DHT22;7268;50.792;0.252;2023-08-01T07:17:38;17.80;99.00
14370;DHT22;7268;50.792;0.252;2023-08-01T07:20:05;17.80;98.70
14370;DHT22;7268;50.792;0.252;2023-08-01T07:22:32;17.60;99.80
14370;DHT22;7268;50.792;0.252;2023-08-01T07:24:59;17.80;99.50
14370;DHT22;7268;50.792;0.252;2023-08-01T07:27:26;18.10;99.90
14370;DHT22;7268;50.792;0.252;2023-08-01T07:29:53;18.20;98.70
14370;DHT22;7268;50.792;0.252;2023-08-01T07:32:19;18.30;98.00
14370;DHT22;7268;50.792;0.252;2023-08-01T07:34:47;18.30;98.30
14370;DHT22;7268;50.792;0.252;2023-08-01T07:37:15;18.60;97.80
14370;DHT22;7268;50.792;0.252;2023-08-01T07:39:41;18.60;98.00
14370;DHT22;7268;50.792;0.252;2023-08-01T07:42:08;19.00;97.20
14370;DHT22;7268;50.792;0.252;2023-08-01T07:44:35;19.40;95.80
14370;DHT22;7268;50.792;0.252;2023-08-01T07:47:02;19.10;95.50
14370;DHT22;7268;50.792;0.252;2023-08-01T07:49:29;18.80;96.10
14370;DHT22;7268;50.792;0.252;2023-08-01T07:51:56;18.70;96.90
14370;DHT22;7268;50.792;0.252;2023-08-01T07:54:24;19.10;96.80
14370;DHT22;7268;50.792;0.252;2023-08-01T07:56:51;19.60;95.40
14370;DHT22;7268;50.792;0.252;2023-08-01T07:59:18;20.10;94.60
14370;DHT22;7268;50.792;0.252;2023-08-01T08:01:44;20.30;92.90
14370;DHT22;7268;50.792;0.252;2023-08-01T08:04:11;20.30;92.30
14370;DHT22;7268;50.792;0.252;2023-08-01T08:06:40;20.20;93.00
14370;DHT22;7268;50.792;0.252;2023-08-01T08:09:08;19.70;92.00
14370;DHT22;7268;50.792;0.252;2023-08-01T08:11:35;18.90;94.20
14370;DHT22;7268;50.792;0.252;2023-08-01T08:14:02;19.00;95.20
14370;DHT22;7268;50.792;0.252;2023-08-01T08:16:29;19.30;94.50
14370;DHT22;7268;50.792;0.252;2023-08-01T08:18:56;19.70;93.00
14370;DHT22;7268;50.792;0.252;2023-08-01T08:21:23;19.60;93.50
14370;DHT22;7268;50.792;0.252;2023-08-01T08:23:49;19.40;94.30
14370;DHT22;7268;50.792;0.252;2023-08-01T08:26:16;19.40;94.70
14370;DHT22;7268;50.792;0.252;2023-08-01T08:28:43;19.20;94.50
14370;DHT22;7268;50.792;0.252;2023-08-01T08:31:11;19.20;94.20
14370;DHT22;7268;50.792;0.252;2023-08-01T08:33:37;19.70;95.40
14370;DHT22;7268;50.792;0.252;2023-08-01T08:36:04;20.00;91.80
14370;DHT22;7268;50.792;0.252;2023-08-01T08:38:31;20.50;93.00
14370;DHT22;7268;50.792;0.252;2023-08-01T08:41:13;22.40;90.80
14370;DHT22;7268;50.792;0.252;2023-08-01T08:43:41;24.50;82.60
14370;DHT22;7268;50.792;0.252;2023-08-01T08:46:09;24.50;79.70
14370;DHT22;7268;50.792;0.252;2023-08-01T08:48:39;22.90;85.60
14370;DHT22;7268;50.792;0.252;2023-08-01T08:51:08;21.90;85.80
14370;DHT22;7268;50.792;0.252;2023-08-01T08:53:35;21.50;90.40
14370;DHT22;7268;50.792;0.252;2023-08-01T08:56:02;22.50;87.00
14370;DHT22;7268;50.792;0.252;2023-08-01T08:58:29;24.00;82.20
14370;DHT22;7268;50.792;0.252;2023-08-01T09:01:01;23.90;81.10
14370;DHT22;7268;50.792;0.252;2023-08-01T09:03:29;22.80;84.50
14370;DHT22;7268;50.792;0.252;2023-08-01T09:06:12;23.10;85.30
14370;DHT22;7268;50.792;0.252;2023-08-01T09:08:48;23.00;85.70
14370;DHT22;7268;50.792;0.252;2023-08-01T09:11:16;23.10;86.80
14370;DHT22;7268;50.792;0.252;2023-08-01T09:13:54;22.50;89.20
14370;DHT22;7268;50.792;0.252;2023-08-01T09:16:24;21.30;90.60
14370;DHT22;7268;50.792;0.252;2023-08-01T09:18:51;21.10;92.60
14370;DHT22;7268;50.792;0.252;2023-08-01T09:21:22;21.40;91.10
14370;DHT22;7268;50.792;0.252;2023-08-01T09:23:52;23.20;89.10
14370;DHT22;7268;50.792;0.252;2023-08-01T09:26:20;23.40;85.50
14370;DHT22;7268;50.792;0.252;2023-08-01T09:28:56;23.80;83.90
14370;DHT22;7268;50.792;0.252;2023-08-01T09:31:29;23.50;83.10
14370;DHT22;7268;50.792;0.252;2023-08-01T09:33:58;24.30;82.10
14370;DHT22;7268;50.792;0.252;2023-08-01T09:36:24;23.40;83.70
14370;DHT22;7268;50.792;0.252;2023-08-01T09:39:01;21.60;87.80
14370;DHT22;7268;50.792;0.252;2023-08-01T09:41:30;20.50;92.40
14370;DHT22;7268;50.792;0.252;2023-08-01T09:43:57;19.80;93.30
14370;DHT22;7268;50.792;0.252;2023-08-01T09:46:24;19.20;94.70
14370;DHT22;7268;50.792;0.252;2023-08-01T09:48:52;19.00;94.80
14370;DHT22;7268;50.792;0.252;2023-08-01T09:51:19;18.60;95.80
14370;DHT22;7268;50.792;0.252;2023-08-01T09:55:46;20.90;92.20
14370;DHT22;7268;50.792;0.252;2023-08-01T09:58:16;21.60;90.00
14370;DHT22;7268;50.792;0.252;2023-08-01T10:00:44;22.30;90.20
14370;DHT22;7268;50.792;0.252;2023-08-01T10:03:11;22.50;87.50
14370;DHT22;7268;50.792;0.252;2023-08-01T10:05:38;21.70;88.90
14370;DHT22;7268;50.792;0.252;2023-08-01T10:08:07;21.20;91.10
14370;DHT22;7268;50.792;0.252;2023-08-01T10:10:34;20.80;91.80
14370;DHT22;7268;50.792;0.252;2023-08-01T10:13:01;21.70;91.40
14370;DHT22;7268;50.792;0.252;2023-08-01T10:15:29;22.70;90.00
14370;DHT22;7268;50.792;0.252;2023-08-01T10:17:57;22.90;86.00
14370;DHT22;7268;50.792;0.252;2023-08-01T10:20:24;22.90;90.10
14370;DHT22;7268;50.792;0.252;2023-08-01T10:22:52;23.10;89.90
14370;DHT22;7268;50.792;0.252;2023-08-01T10:25:20;23.60;87.60
14370;DHT22;7268;50.792;0.252;2023-08-01T10:28:05;23.90;83.60
14370;DHT22;7268;50.792;0.252;2023-08-01T10:30:32;23.20;85.10
14370;DHT22;7268;50.792;0.252;2023-08-01T10:33:00;22.80;89.00
14370;DHT22;7268;50.792;0.252;2023-08-01T10:35:37;22.70;84.30
14370;DHT22;7268;50.792;0.252;2023-08-01T10:38:10;21.90;89.60
14370;DHT22;7268;50.792;0.252;2023-08-01T10:40:42;21.20;91.30
14370;DHT22;7268;50.792;0.252;2023-08-01T10:43:23;21.20;92.20
14370;DHT22;7268;50.792;0.252;2023-08-01T10:46:05;21.50;92.20
14370;DHT22;7268;50.792;0.252;2023-08-01T10:48:32;22.00;91.20
14370;DHT22;7268;50.792;0.252;2023-08-01T10:50:59;21.80;91.10
14370;DHT22;7268;50.792;0.252;2023-08-01T10:53:38;22.10;90.70
14370;DHT22;7268;50.792;0.252;2023-08-01T10:56:16;22.20;89.80
14370;DHT22;7268;50.792;0.252;2023-08-01T10:58:43;21.60;90.30
14370;DHT22;7268;50.792;0.252;2023-08-01T11:01:10;21.20;91.40
14370;DHT22;7268;50.792;0.252;2023-08-01T11:03:38;21.50;91.60
14370;DHT22;7268;50.792;0.252;2023-08-01T11:06:06;22.20;91.70
14370;DHT22;7268;50.792;0.252;2023-08-01T11:08:37;22.30;90.10
14370;DHT22;7268;50.792;0.252;2023-08-01T11:11:22;22.80;88.90
14370;DHT22;7268;50.792;0.252;2023-08-01T11:13:51;23.20;89.60
14370;DHT22;7268;50.792;0.252;2023-08-01T11:16:19;24.80;84.10
14370;DHT22;7268;50.792;0.252;2023-08-01T11:18:46;23.30;87.60
14370;DHT22;7268;50.792;0.252;2023-08-01T11:21:25;23.10;90.30
14370;DHT22;7268;50.792;0.252;2023-08-01T11:23:53;23.30;87.20
14370;DHT22;7268;50.792;0.252;2023-08-01T11:26:20;24.10;86.10
14370;DHT22;7268;50.792;0.252;2023-08-01T11:28:47;25.20;82.50
14370;DHT22;7268;50.792;0.252;2023-08-01T11:31:14;25.90;78.90
14370;DHT22;7268;50.792;0.252;2023-08-01T11:33:41;24.90;80.00
14370;DHT22;7268;50.792;0.252;2023-08-01T11:36:08;25.20;82.50
14370;DHT22;7268;50.792;0.252;2023-08-01T11:38:36;25.10;81.30
14370;DHT22;7268;50.792;0.252;2023-08-01T11:41:06;24.90;79.30
14370;DHT22;7268;50.792;0.252;2023-08-01T11:43:41;24.70;79.50
14370;DHT22;7268;50.792;0.252;2023-08-01T11:46:08;24.00;84.10
14370;DHT22;7268;50.792;0.252;2023-08-01T11:48:36;24.70;81.70
14370;DHT22;7268;50.792;0.252;2023-08-01T11:51:03;25.00;81.00
14370;DHT22;7268;50.792;0.252;2023-08-01T11:53:31;23.20;83.30
14370;DHT22;7268;50.792;0.252;2023-08-01T11:56:08;22.50;89.10
14370;DHT22;7268;50.792;0.252;2023-08-01T11:58:36;22.60;88.60
14370;DHT22;7268;50.792;0.252;2023-08-01T12:01:13;21.60;90.80
14370;DHT22;7268;50.792;0.252;2023-08-01T12:03:49;21.30;92.40
14370;DHT22;7268;50.792;0.252;2023-08-01T12:06:17;21.80;92.30
14370;DHT22;7268;50.792;0.252;2023-08-01T12:08:46;22.70;90.20
14370;DHT22;7268;50.792;0.252;2023-08-01T12:14:11;24.20;88.20
14370;DHT22;7268;50.792;0.252;2023-08-01T12:16:39;24.50;86.00
14370;DHT22;7268;50.792;0.252;2023-08-01T12:19:08;24.60;87.50
14370;DHT22;7268;50.792;0.252;2023-08-01T12:21:35;24.10;86.60
14370;DHT22;7268;50.792;0.252;2023-08-01T12:24:03;23.60;88.50
14370;DHT22;7268;50.792;0.252;2023-08-01T12:26:30;22.60;91.00
14370;DHT22;7268;50.792;0.252;2023-08-01T12:28:57;22.20;92.40
14370;DHT22;7268;50.792;0.252;2023-08-01T12:31:24;22.00;92.40
14370;DHT22;7268;50.792;0.252;2023-08-01T12:33:51;21.90;93.10
14370;DHT22;7268;50.792;0.252;2023-08-01T12:36:20;22.80;92.80
14370;DHT22;7268;50.792;0.252;2023-08-01T12:38:47;23.20;91.70
14370;DHT22;7268;50.792;0.252;2023-08-01T12:41:14;22.80;91.70
14370;DHT22;7268;50.792;0.252;2023-08-01T12:43:41;22.90;90.90
14370;DHT22;7268;50.792;0.252;2023-08-01T12:46:08;22.80;91.50
14370;DHT22;7268;50.792;0.252;2023-08-01T12:48:35;22.40;91.70
14370;DHT22;7268;50.792;0.252;2023-08-01T12:51:02;22.70;91.70
14370;DHT22;7268;50.792;0.252;2023-08-01T12:53:29;22.80;91.30
14370;DHT22;7268;50.792;0.252;2023-08-01T12:55:56;23.10;90.80
14370;DHT22;7268;50.792;0.252;2023-08-01T12:58:23;22.70;91.00
14370;DHT22;7268;50.792;0.252;2023-08-01T13:00:50;22.50;91.90
14370;DHT22;7268;50.792;0.252;2023-08-01T13:03:17;22.20;91.70
14370;DHT22;7268;50.792;0.252;2023-08-01T13:05:44;22.30;91.60
14370;DHT22;7268;50.792;0.252;2023-08-01T13:08:11;22.40;91.50
14370;DHT22;7268;50.792;0.252;2023-08-01T13:10:39;22.50;92.10
14370;DHT22;7268;50.792;0.252;2023-08-01T13:13:06;22.40;91.40
14370;DHT22;7268;50.792;0.252;2023-08-01T13:15:33;22.20;91.70
14370;DHT22;7268;50.792;0.252;2023-08-01T13:18:00;21.50;92.90
14370;DHT22;7268;50.792;0.252;2023-08-01T13:20:27;21.70;92.50
14370;DHT22;7268;50.792;0.252;2023-08-01T13:22:57;21.80;93.30
14370;DHT22;7268;50.792;0.252;2023-08-01T13:25:24;22.10;92.80
14370;DHT22;7268;50.792;0.252;2023-08-01T13:27:51;22.10;93.30
14370;DHT22;7268;50.792;0.252;2023-08-01T13:30:18;21.70;93.50
14370;DHT22;7268;50.792;0.252;2023-08-01T13:32:45;21.40;93.30
14370;DHT22;7268;50.792;0.252;2023-08-01T13:35:13;21.60;94.40
14370;DHT22;7268;50.792;0.252;2023-08-01T13:37:41;21.50;94.10
14370;DHT22;7268;50.792;0.252;2023-08-01T13:40:08;21.20;94.90
14370;DHT22;7268;50.792;0.252;2023-08-01T13:42:38;21.00;94.90
14370;DHT22;7268;50.792;0.252;2023-08-01T13:45:05;21.00;95.00
14370;DHT22;7268;50.792;0.252;2023-08-01T13:47:32;21.00;94.10
14370;DHT22;7268;50.792;0.252;2023-08-01T13:49:59;21.00;95.30
14370;DHT22;7268;50.792;0.252;2023-08-01T13:52:26;21.20;94.60
14370;DHT22;7268;50.792;0.252;2023-08-01T13:54:53;21.30;95.10
14370;DHT22;7268;50.792;0.252;2023-08-01T13:57:20;21.20;94.40
14370;DHT22;7268;50.792;0.252;2023-08-01T13:59:50;21.10;94.60
14370;DHT22;7268;50.792;0.252;2023-08-01T14:02:36;20.90;94.40
14370;DHT22;7268;50.792;0.252;2023-08-01T14:05:03;20.90;95.40
14370;DHT22;7268;50.792;0.252;2023-08-01T14:07:30;21.00;95.20
14370;DHT22;7268;50.792;0.252;2023-08-01T14:09:57;21.10;95.70
14370;DHT22;7268;50.792;0.252;2023-08-01T14:12:24;20.90;95.80
14370;DHT22;7268;50.792;0.252;2023-08-01T14:14:51;20.80;96.10
14370;DHT22;7268;50.792;0.252;2023-08-01T14:17:18;21.00;96.40
14370;DHT22;7268;50.792;0.252;2023-08-01T14:19:45;20.80;95.80
14370;DHT22;7268;50.792;0.252;2023-08-01T14:22:12;20.70;96.60
14370;DHT22;7268;50.792;0.252;2023-08-01T14:24:38;21.00;96.40
14370;DHT22;7268;50.792;0.252;2023-08-01T14:27:05;21.00;96.10
14370;DHT22;7268;50.792;0.252;2023-08-01T14:29:32;20.50;96.30
14370;DHT22;7268;50.792;0.252;2023-08-01T14:31:59;20.60;96.90
14370;DHT22;7268;50.792;0.252;2023-08-01T14:34:26;20.40;96.70
14370;DHT22;7268;50.792;0.252;2023-08-01T14:36:53;20.20;97.20
14370;DHT22;7268;50.792;0.252;2023-08-01T14:39:20;20.20;97.30
14370;DHT22;7268;50.792;0.252;2023-08-01T14:41:49;20.40;97.70
14370;DHT22;7268;50.792;0.252;2023-08-01T14:44:19;20.20;97.60
14370;DHT22;7268;50.792;0.252;2023-08-01T14:46:46;19.90;97.70
14370;DHT22;7268;50.792;0.252;2023-08-01T14:49:13;19.90;97.90
14370;DHT22;7268;50.792;0.252;2023-08-01T14:51:41;19.80;98.50
14370;DHT22;7268;50.792;0.252;2023-08-01T14:54:08;19.90;98.10
14370;DHT22;7268;50.792;0.252;2023-08-01T14:56:35;20.00;97.50
14370;DHT22;7268;50.792;0.252;2023-08-01T14:59:02;19.90;98.10
14370;DHT22;7268;50.792;0.252;2023-08-01T15:01:30;20.20;97.90
14370;DHT22;7268;50.792;0.252;2023-08-01T15:03:57;20.30;97.50
14370;DHT22;7268;50.792;0.252;2023-08-01T15:06:24;20.00;97.50
14370;DHT22;7268;50.792;0.252;2023-08-01T15:08:52;19.80;98.30
14370;DHT22;7268;50.792;0.252;2023-08-01T15:11:20;19.90;98.70
14370;DHT22;7268;50.792;0.252;2023-08-01T15:13:47;19.80;98.00
14370;DHT22;7268;50.792;0.252;2023-08-01T15:16:14;19.80;97.90
14370;DHT22;7268;50.792;0.252;2023-08-01T15:18:41;19.70;98.30
14370;DHT22;7268;50.792;0.252;2023-08-01T15:21:08;19.60;98.20
14370;DHT22;7268;50.792;0.252;2023-08-01T15:23:35;19.80;97.80
14370;DHT22;7268;50.792;0.252;2023-08-01T15:26:02;19.50;97.80
14370;DHT22;7268;50.792;0.252;2023-08-01T15:28:29;19.70;98.20
14370;DHT22;7268;50.792;0.252;2023-08-01T15:31:04;19.70;98.00
14370;DHT22;7268;50.792;0.252;2023-08-01T15:33:37;19.40;98.80
14370;DHT22;7268;50.792;0.252;2023-08-01T15:36:06;19.30;99.10
14370;DHT22;7268;50.792;0.252;2023-08-01T15:38:35;19.20;99.40
14370;DHT22;7268;50.792;0.252;2023-08-01T15:41:03;19.00;99.50
14370;DHT22;7268;50.792;0.252;2023-08-01T15:43:37;19.00;99.80
14370;DHT22;7268;50.792;0.252;2023-08-01T15:46:05;18.80;99.90
14370;DHT22;7268;50.792;0.252;2023-08-01T15:48:33;18.80;99.90
14370;DHT22;7268;50.792;0.252;2023-08-01T15:51:02;18.90;99.90
14370;DHT22;7268;50.792;0.252;2023-08-01T15:53:30;19.00;99.90
14370;DHT22;7268;50.792;0.252;2023-08-01T15:55:58;19.30;99.60